sensor_id;sensor_type;location;lat;lon;timestamp;temperature;humidity
6696;DHT22;3385;48.928;10.330;2024-02-21T00:03:22;5.40;99.90
6696;DHT22;3385;48.928;10.330;2024-02-21T00:05:48;5.50;99.90
6696;DHT22;3385;48.928;10.330;2024-02-21T00:10:39;5.50;99.90
6696;DHT22;3385;48.928;10.330;2024-02-21T00:13:05;5.40;99.90
6696;DHT22;3385;48.928;10.330;2024-02-21T00:15:31;5.40;99.90
6696;DHT22;3385;48.928;10.330;2024-02-21T00:17:57;6.00;99.90
6696;DHT22;3385;48.928;10.330;2024-02-21T00:20:22;5.50;99.90
6696;DHT22;3385;48.928;10.330;2024-02-21T00:22:48;5.70;99.90
6696;DHT22;3385;48.928;10.330;2024-02-21T00:25:14;5.40;99.90
6696;DHT22;3385;48.928;10.330;2024-02-21T00:27:39;5.20;99.90
6696;DHT22;3385;48.928;10.330;2024-02-21T00:30:06;5.40;99.90
6696;DHT22;3385;48.928;10.330;2024-02-21T00:32:32;5.30;99.90
6696;DHT22;3385;48.928;10.330;2024-02-21T00:34:59;5.30;99.90
6696;DHT22;3385;48.928;10.330;2024-02-21T00:37:25;5.50;99.90
6696;DHT22;3385;48.928;10.330;2024-02-21T00:39:51;5.40;99.90
6696;DHT22;3385;48.928;10.330;2024-02-21T00:42:17;5.50;99.90
6696;DHT22;3385;48.928;10.330;2024-02-21T00:44:42;5.80;99.90
6696;DHT22;3385;48.928;10.330;2024-02-21T00:54:26;5.20;99.90
6696;DHT22;3385;48.928;10.330;2024-02-21T00:59:20;5.40;99.90
6696;DHT22;3385;48.928;10.330;2024-02-21T01:01:46;5.40;99.90
6696;DHT22;3385;48.928;10.330;2024-02-21T01:04:11;5.40;99.90
6696;DHT22;3385;48.928;10.330;2024-02-21T01:06:37;5.60;99.90
6696;DHT22;3385;48.928;10.330;2024-02-21T01:09:03;5.50;99.90
6696;DHT22;3385;48.928;10.330;2024-02-21T01:11:29;5.60;99.90
6696;DHT22;3385;48.928;10.330;2024-02-21T01:13:55;5.60;99.90
6696;DHT22;3385;48.928;10.330;2024-02-21T01:16:21;5.60;99.90
6696;DHT22;3385;48.928;10.330;2024-02-21T01:18:47;5.60;99.90
6696;DHT22;3385;48.928;10.330;2024-02-21T01:21:12;5.50;99.90
6696;DHT22;3385;48.928;10.330;2024-02-21T01:23:39;5.60;99.90
6696;DHT22;3385;48.928;10.330;2024-02-21T01:26:05;5.70;99.90
6696;DHT22;3385;48.928;10.330;2024-02-21T01:28:34;5.60;99.90
6696;DHT22;3385;48.928;10.330;2024-02-21T01:30:59;5.70;99.90
6696;DHT22;3385;48.928;10.330;2024-02-21T01:33:25;5.60;99.90
6696;DHT22;3385;48.928;10.330;2024-02-21T01:35:51;6.10;99.90
6696;DHT22;3385;48.928;10.330;2024-02-21T01:38:17;5.80;99.90
6696;DHT22;3385;48.928;10.330;2024-02-21T01:40:42;6.10;99.90
6696;DHT22;3385;48.928;10.330;2024-02-21T01:43:19;6.10;99.90
6696;DHT22;3385;48.928;10.330;2024-02-21T01:45:55;5.60;99.90
6696;DHT22;3385;48.928;10.330;2024-02-21T01:48:25;5.90;99.90
6696;DHT22;3385;48.928;10.330;2024-02-21T01:53:21;5.60;99.90
6696;DHT22;3385;48.928;10.330;2024-02-21T01:58:15;5.90;99.90
6696;DHT22;3385;48.928;10.330;2024-02-21T02:00:42;6.00;99.90
6696;DHT22;3385;48.928;10.330;2024-02-21T02:03:12;6.00;99.90
6696;DHT22;3385;48.928;10.330;2024-02-21T02:05:49;6.00;99.90
6696;DHT22;3385;48.928;10.330;2024-02-21T02:08:16;6.10;99.90
6696;DHT22;3385;48.928;10.330;2024-02-21T02:10:42;6.20;99.90
6696;DHT22;3385;48.928;10.330;2024-02-21T02:13:08;6.00;99.90
6696;DHT22;3385;48.928;10.330;2024-02-21T02:20:35;6.40;99.90
6696;DHT22;3385;48.928;10.330;2024-02-21T02:23:11;6.00;99.90
6696;DHT22;3385;48.928;10.330;2024-02-21T02:25:38;6.00;99.90
6696;DHT22;3385;48.928;10.330;2024-02-21T02:28:05;6.00;99.90
6696;DHT22;3385;48.928;10.330;2024-02-21T02:30:35;6.00;99.90
6696;DHT22;3385;48.928;10.330;2024-02-21T02:33:04;5.90;99.90
6696;DHT22;3385;48.928;10.330;2024-02-21T02:35:30;5.90;99.90
6696;DHT22;3385;48.928;10.330;2024-02-21T02:37:56;6.00;99.90
6696;DHT22;3385;48.928;10.330;2024-02-21T02:40:22;6.00;99.90
6696;DHT22;3385;48.928;10.330;2024-02-21T02:42:49;6.00;99.90
6696;DHT22;3385;48.928;10.330;2024-02-21T02:47:44;6.00;99.90
6696;DHT22;3385;48.928;10.330;2024-02-21T02:50:11;5.90;99.90
6696;DHT22;3385;48.928;10.330;2024-02-21T02:52:37;5.90;99.90
6696;DHT22;3385;48.928;10.330;2024-02-21T02:55:04;5.80;99.90
6696;DHT22;3385;48.928;10.330;2024-02-21T02:57:30;5.70;99.90
6696;DHT22;3385;48.928;10.330;2024-02-21T02:59:56;5.90;99.90
6696;DHT22;3385;48.928;10.330;2024-02-21T03:02:22;5.80;99.90
6696;DHT22;3385;48.928;10.330;2024-02-21T03:04:48;5.90;99.90
6696;DHT22;3385;48.928;10.330;2024-02-21T03:09:40;5.70;99.90
6696;DHT22;3385;48.928;10.330;2024-02-21T03:12:08;5.90;99.90
6696;DHT22;3385;48.928;10.330;2024-02-21T03:14:34;5.90;99.90
6696;DHT22;3385;48.928;10.330;2024-02-21T03:17:01;5.80;99.90
6696;DHT22;3385;48.928;10.330;2024-02-21T03:19:27;5.70;99.90
6696;DHT22;3385;48.928;10.330;2024-02-21T03:21:53;5.70;99.90
6696;DHT22;3385;48.928;10.330;2024-02-21T03:24:19;5.90;99.90
6696;DHT22;3385;48.928;10.330;2024-02-21T03:26:46;5.80;99.90
6696;DHT22;3385;48.928;10.330;2024-02-21T03:29:14;6.10;99.90
6696;DHT22;3385;48.928;10.330;2024-02-21T03:31:40;5.60;99.90
6696;DHT22;3385;48.928;10.330;2024-02-21T03:34:06;6.00;99.90
6696;DHT22;3385;48.928;10.330;2024-02-21T03:36:32;5.90;99.90
6696;DHT22;3385;48.928;10.330;2024-02-21T03:38:58;5.80;99.90
6696;DHT22;3385;48.928;10.330;2024-02-21T03:41:23;5.50;99.90
6696;DHT22;3385;48.928;10.330;2024-02-21T03:43:49;5.60;99.90
6696;DHT22;3385;48.928;10.330;2024-02-21T03:46:15;5.80;99.90
6696;DHT22;3385;48.928;10.330;2024-02-21T03:48:41;5.60;99.90
6696;DHT22;3385;48.928;10.330;2024-02-21T03:56:02;5.80;99.90
6696;DHT22;3385;48.928;10.330;2024-02-21T03:58:30;5.90;99.90
6696;DHT22;3385;48.928;10.330;2024-02-21T04:00:55;5.90;99.90
6696;DHT22;3385;48.928;10.330;2024-02-21T04:03:22;5.80;99.90
6696;DHT22;3385;48.928;10.330;2024-02-21T04:05:48;5.70;99.90
6696;DHT22;3385;48.928;10.330;2024-02-21T04:08:14;5.80;99.90
6696;DHT22;3385;48.928;10.330;2024-02-21T04:10:39;5.70;99.90
6696;DHT22;3385;48.928;10.330;2024-02-21T04:13:06;5.70;99.90
6696;DHT22;3385;48.928;10.330;2024-02-21T04:15:32;5.60;99.90
6696;DHT22;3385;48.928;10.330;2024-02-21T04:17:58;5.70;99.90
6696;DHT22;3385;48.928;10.330;2024-02-21T04:20:24;5.60;99.90
6696;DHT22;3385;48.928;10.330;2024-02-21T04:22:50;5.60;99.90
6696;DHT22;3385;48.928;10.330;2024-02-21T04:25:15;5.60;99.90
6696;DHT22;3385;48.928;10.330;2024-02-21T04:27:41;5.30;99.90
6696;DHT22;3385;48.928;10.330;2024-02-21T04:30:08;5.10;99.90
6696;DHT22;3385;48.928;10.330;2024-02-21T04:32:35;5.10;99.90
6696;DHT22;3385;48.928;10.330;2024-02-21T04:35:01;4.90;99.90
6696;DHT22;3385;48.928;10.330;2024-02-21T04:37:27;5.00;99.90
6696;DHT22;3385;48.928;10.330;2024-02-21T04:39:54;4.90;99.90
6696;DHT22;3385;48.928;10.330;2024-02-21T04:42:20;4.90;99.90
6696;DHT22;3385;48.928;10.330;2024-02-21T04:44:45;4.90;99.90
6696;DHT22;3385;48.928;10.330;2024-02-21T04:47:12;4.80;99.90
6696;DHT22;3385;48.928;10.330;2024-02-21T04:49:38;4.80;99.90
6696;DHT22;3385;48.928;10.330;2024-02-21T04:52:04;4.90;99.90
6696;DHT22;3385;48.928;10.330;2024-02-21T04:54:30;4.60;99.90
6696;DHT22;3385;48.928;10.330;2024-02-21T04:56:56;4.80;99.90
6696;DHT22;3385;48.928;10.330;2024-02-21T04:59:22;4.70;99.90
6696;DHT22;3385;48.928;10.330;2024-02-21T05:01:47;4.90;99.90
6696;DHT22;3385;48.928;10.330;2024-02-21T05:04:13;4.40;99.90
6696;DHT22;3385;48.928;10.330;2024-02-21T05:06:42;4.60;99.90
6696;DHT22;3385;48.928;10.330;2024-02-21T05:11:35;4.40;99.90
6696;DHT22;3385;48.928;10.330;2024-02-21T05:14:01;4.20;99.90
6696;DHT22;3385;48.928;10.330;2024-02-21T05:16:28;4.20;99.90
6696;DHT22;3385;48.928;10.330;2024-02-21T05:18:54;4.30;99.90
6696;DHT22;3385;48.928;10.330;2024-02-21T05:21:19;4.30;99.90
6696;DHT22;3385;48.928;10.330;2024-02-21T05:26:11;4.30;99.90
6696;DHT22;3385;48.928;10.330;2024-02-21T05:31:03;4.20;99.90
6696;DHT22;3385;48.928;10.330;2024-02-21T05:38:21;4.30;99.90
6696;DHT22;3385;48.928;10.330;2024-02-21T05:45:40;4.30;99.90
6696;DHT22;3385;48.928;10.330;2024-02-21T05:48:06;4.60;99.90
6696;DHT22;3385;48.928;10.330;2024-02-21T05:50:32;4.40;99.90
6696;DHT22;3385;48.928;10.330;2024-02-21T05:52:58;4.40;99.90
6696;DHT22;3385;48.928;10.330;2024-02-21T05:55:24;4.20;99.90
6696;DHT22;3385;48.928;10.330;2024-02-21T05:57:53;4.30;99.90
6696;DHT22;3385;48.928;10.330;2024-02-21T06:00:18;4.40;99.90
6696;DHT22;3385;48.928;10.330;2024-02-21T06:02:44;4.20;99.90
6696;DHT22;3385;48.928;10.330;2024-02-21T06:10:02;4.00;99.90
6696;DHT22;3385;48.928;10.330;2024-02-21T06:12:28;4.00;99.90
6696;DHT22;3385;48.928;10.330;2024-02-21T06:14:54;4.00;99.90
6696;DHT22;3385;48.928;10.330;2024-02-21T06:17:20;4.00;99.90
6696;DHT22;3385;48.928;10.330;2024-02-21T06:24:38;4.30;99.90
6696;DHT22;3385;48.928;10.330;2024-02-21T06:27:05;4.10;99.90
6696;DHT22;3385;48.928;10.330;2024-02-21T06:29:33;4.10;99.90
6696;DHT22;3385;48.928;10.330;2024-02-21T06:31:59;4.10;99.90
6696;DHT22;3385;48.928;10.330;2024-02-21T06:34:25;4.00;99.90
6696;DHT22;3385;48.928;10.330;2024-02-21T06:39:17;3.80;99.90
6696;DHT22;3385;48.928;10.330;2024-02-21T06:51:31;4.30;99.90
6696;DHT22;3385;48.928;10.330;2024-02-21T06:53:57;4.60;99.90
6696;DHT22;3385;48.928;10.330;2024-02-21T07:01:24;4.30;99.90
6696;DHT22;3385;48.928;10.330;2024-02-21T07:08:42;4.60;99.90
6696;DHT22;3385;48.928;10.330;2024-02-21T07:13:33;4.20;99.90
6696;DHT22;3385;48.928;10.330;2024-02-21T07:18:25;4.50;99.90
6696;DHT22;3385;48.928;10.330;2024-02-21T07:20:52;4.50;99.90
6696;DHT22;3385;48.928;10.330;2024-02-21T07:23:18;4.60;99.90
6696;DHT22;3385;48.928;10.330;2024-02-21T07:25:43;4.50;99.90
6696;DHT22;3385;48.928;10.330;2024-02-21T07:28:09;4.70;99.90
6696;DHT22;3385;48.928;10.330;2024-02-21T07:35:27;5.10;99.90
6696;DHT22;3385;48.928;10.330;2024-02-21T07:42:45;7.30;99.90
6696;DHT22;3385;48.928;10.330;2024-02-21T07:45:11;7.50;99.90
6696;DHT22;3385;48.928;10.330;2024-02-21T07:47:37;8.40;99.90
6696;DHT22;3385;48.928;10.330;2024-02-21T07:50:03;8.30;99.90
6696;DHT22;3385;48.928;10.330;2024-02-21T07:52:29;8.20;99.90
6696;DHT22;3385;48.928;10.330;2024-02-21T07:54:55;7.90;99.90
6696;DHT22;3385;48.928;10.330;2024-02-21T07:57:21;8.90;99.90
6696;DHT22;3385;48.928;10.330;2024-02-21T07:59:47;9.20;99.90
6696;DHT22;3385;48.928;10.330;2024-02-21T08:02:14;9.30;99.90
6696;DHT22;3385;48.928;10.330;2024-02-21T08:04:40;10.80;99.90
6696;DHT22;3385;48.928;10.330;2024-02-21T08:07:06;10.40;99.90
6696;DHT22;3385;48.928;10.330;2024-02-21T08:09:31;10.40;99.90
6696;DHT22;3385;48.928;10.330;2024-02-21T08:11:57;10.60;99.90
6696;DHT22;3385;48.928;10.330;2024-02-21T08:14:23;10.00;99.90
6696;DHT22;3385;48.928;10.330;2024-02-21T08:16:50;9.40;99.90
6696;DHT22;3385;48.928;10.330;2024-02-21T08:19:18;9.00;99.90
6696;DHT22;3385;48.928;10.330;2024-02-21T08:21:44;8.70;99.90
6696;DHT22;3385;48.928;10.330;2024-02-21T08:24:13;8.70;99.90
6696;DHT22;3385;48.928;10.330;2024-02-21T08:26:42;8.60;99.90
6696;DHT22;3385;48.928;10.330;2024-02-21T08:29:08;8.50;99.90
6696;DHT22;3385;48.928;10.330;2024-02-21T08:31:33;8.60;99.90
6696;DHT22;3385;48.928;10.330;2024-02-21T08:34:00;8.80;99.90
6696;DHT22;3385;48.928;10.330;2024-02-21T08:36:36;8.70;99.90
6696;DHT22;3385;48.928;10.330;2024-02-21T08:39:03;8.40;99.90
6696;DHT22;3385;48.928;10.330;2024-02-21T08:41:31;8.30;99.90
6696;DHT22;3385;48.928;10.330;2024-02-21T08:43:57;8.30;99.90
6696;DHT22;3385;48.928;10.330;2024-02-21T08:46:23;8.60;99.90
6696;DHT22;3385;48.928;10.330;2024-02-21T08:48:53;8.60;99.90
6696;DHT22;3385;48.928;10.330;2024-02-21T08:51:19;8.50;99.90
6696;DHT22;3385;48.928;10.330;2024-02-21T08:53:48;8.70;99.90
6696;DHT22;3385;48.928;10.330;2024-02-21T08:56:15;8.90;99.90
6696;DHT22;3385;48.928;10.330;2024-02-21T08:58:41;9.10;99.90
6696;DHT22;3385;48.928;10.330;2024-02-21T09:01:07;9.00;99.90
6696;DHT22;3385;48.928;10.330;2024-02-21T09:03:38;8.90;99.90
6696;DHT22;3385;48.928;10.330;2024-02-21T09:06:06;9.40;99.90
6696;DHT22;3385;48.928;10.330;2024-02-21T09:08:32;9.60;99.90
6696;DHT22;3385;48.928;10.330;2024-02-21T09:10:58;9.70;99.90
6696;DHT22;3385;48.928;10.330;2024-02-21T09:13:25;9.40;99.90
6696;DHT22;3385;48.928;10.330;2024-02-21T09:15:50;9.80;99.90
6696;DHT22;3385;48.928;10.330;2024-02-21T09:18:16;9.90;99.90
6696;DHT22;3385;48.928;10.330;2024-02-21T09:20:42;10.30;99.90
6696;DHT22;3385;48.928;10.330;2024-02-21T09:23:08;10.50;99.90
6696;DHT22;3385;48.928;10.330;2024-02-21T09:25:34;10.50;99.90
6696;DHT22;3385;48.928;10.330;2024-02-21T09:28:01;10.60;99.90
6696;DHT22;3385;48.928;10.330;2024-02-21T09:30:27;11.20;99.90
6696;DHT22;3385;48.928;10.330;2024-02-21T09:32:53;11.30;99.90
6696;DHT22;3385;48.928;10.330;2024-02-21T09:35:19;11.30;99.90
6696;DHT22;3385;48.928;10.330;2024-02-21T09:37:47;11.40;99.90
6696;DHT22;3385;48.928;10.330;2024-02-21T09:40:15;11.20;99.90
6696;DHT22;3385;48.928;10.330;2024-02-21T09:42:42;11.40;99.90
6696;DHT22;3385;48.928;10.330;2024-02-21T09:50:29;10.70;99.90
6696;DHT22;3385;48.928;10.330;2024-02-21T09:52:58;10.70;99.90
6696;DHT22;3385;48.928;10.330;2024-02-21T09:55:26;10.80;99.90
6696;DHT22;3385;48.928;10.330;2024-02-21T09:57:53;11.10;99.90
6696;DHT22;3385;48.928;10.330;2024-02-21T10:00:19;11.00;99.90
6696;DHT22;3385;48.928;10.330;2024-02-21T10:02:50;11.00;99.90
6696;DHT22;3385;48.928;10.330;2024-02-21T10:05:16;11.20;99.90
6696;DHT22;3385;48.928;10.330;2024-02-21T10:07:43;11.60;99.90
6696;DHT22;3385;48.928;10.330;2024-02-21T10:10:09;12.00;99.90
6696;DHT22;3385;48.928;10.330;2024-02-21T10:12:35;11.80;99.90
6696;DHT22;3385;48.928;10.330;2024-02-21T10:15:05;11.50;99.90
6696;DHT22;3385;48.928;10.330;2024-02-21T10:17:35;11.40;99.90
6696;DHT22;3385;48.928;10.330;2024-02-21T10:20:11;11.10;99.90
6696;DHT22;3385;48.928;10.330;2024-02-21T10:22:38;11.20;99.90
6696;DHT22;3385;48.928;10.330;2024-02-21T10:25:17;11.60;99.90
6696;DHT22;3385;48.928;10.330;2024-02-21T10:27:44;11.90;99.90
6696;DHT22;3385;48.928;10.330;2024-02-21T10:30:14;12.60;99.90
6696;DHT22;3385;48.928;10.330;2024-02-21T10:32:53;12.60;99.90
6696;DHT22;3385;48.928;10.330;2024-02-21T10:35:29;12.40;99.90
6696;DHT22;3385;48.928;10.330;2024-02-21T10:37:56;12.60;99.90
6696;DHT22;3385;48.928;10.330;2024-02-21T10:40:31;12.30;99.90
6696;DHT22;3385;48.928;10.330;2024-02-21T10:42:58;12.30;99.90
6696;DHT22;3385;48.928;10.330;2024-02-21T10:45:35;12.60;99.90
6696;DHT22;3385;48.928;10.330;2024-02-21T10:48:16;12.40;99.90
6696;DHT22;3385;48.928;10.330;2024-02-21T10:50:56;12.80;99.90
6696;DHT22;3385;48.928;10.330;2024-02-21T10:58:49;13.50;99.90
6696;DHT22;3385;48.928;10.330;2024-02-21T11:01:15;13.90;99.90
6696;DHT22;3385;48.928;10.330;2024-02-21T11:03:44;13.40;99.90
6696;DHT22;3385;48.928;10.330;2024-02-21T11:06:11;13.60;99.90
6696;DHT22;3385;48.928;10.330;2024-02-21T11:08:37;14.10;99.90
6696;DHT22;3385;48.928;10.330;2024-02-21T11:11:05;14.40;99.90
6696;DHT22;3385;48.928;10.330;2024-02-21T11:13:37;15.10;99.90
6696;DHT22;3385;48.928;10.330;2024-02-21T11:16:10;15.50;99.90
6696;DHT22;3385;48.928;10.330;2024-02-21T11:18:40;15.50;99.90
6696;DHT22;3385;48.928;10.330;2024-02-21T11:21:06;16.00;99.90
6696;DHT22;3385;48.928;10.330;2024-02-21T11:23:32;16.70;99.90
6696;DHT22;3385;48.928;10.330;2024-02-21T11:26:08;16.80;99.90
6696;DHT22;3385;48.928;10.330;2024-02-21T11:28:34;16.70;99.90
6696;DHT22;3385;48.928;10.330;2024-02-21T11:31:10;17.10;99.90
6696;DHT22;3385;48.928;10.330;2024-02-21T11:33:40;17.00;99.90
6696;DHT22;3385;48.928;10.330;2024-02-21T11:36:10;16.80;99.90
6696;DHT22;3385;48.928;10.330;2024-02-21T11:38:37;17.60;99.90
6696;DHT22;3385;48.928;10.330;2024-02-21T11:41:03;18.20;99.90
6696;DHT22;3385;48.928;10.330;2024-02-21T11:43:33;17.90;99.90
6696;DHT22;3385;48.928;10.330;2024-02-21T11:46:02;18.30;99.90
6696;DHT22;3385;48.928;10.330;2024-02-21T11:48:29;19.00;99.90
6696;DHT22;3385;48.928;10.330;2024-02-21T11:50:58;18.70;99.90
6696;DHT22;3385;48.928;10.330;2024-02-21T11:53:26;19.00;99.90
6696;DHT22;3385;48.928;10.330;2024-02-21T11:55:56;19.60;99.90
6696;DHT22;3385;48.928;10.330;2024-02-21T11:58:24;18.80;99.90
6696;DHT22;3385;48.928;10.330;2024-02-21T12:00:49;17.60;99.90
6696;DHT22;3385;48.928;10.330;2024-02-21T12:03:15;16.60;99.90
6696;DHT22;3385;48.928;10.330;2024-02-21T12:05:42;17.00;99.90
6696;DHT22;3385;48.928;10.330;2024-02-21T12:08:08;17.20;99.90
6696;DHT22;3385;48.928;10.330;2024-02-21T12:10:35;17.00;99.90
6696;DHT22;3385;48.928;10.330;2024-02-21T12:13:10;17.20;99.90
6696;DHT22;3385;48.928;10.330;2024-02-21T12:15:38;17.30;99.90
6696;DHT22;3385;48.928;10.330;2024-02-21T12:18:05;16.20;99.90
6696;DHT22;3385;48.928;10.330;2024-02-21T12:20:31;16.50;99.90
6696;DHT22;3385;48.928;10.330;2024-02-21T12:23:00;16.60;99.90
6696;DHT22;3385;48.928;10.330;2024-02-21T12:25:26;17.30;99.90
6696;DHT22;3385;48.928;10.330;2024-02-21T12:27:53;17.70;99.90
6696;DHT22;3385;48.928;10.330;2024-02-21T12:30:19;18.00;99.90
6696;DHT22;3385;48.928;10.330;2024-02-21T12:32:46;18.60;99.90
6696;DHT22;3385;48.928;10.330;2024-02-21T12:35:12;18.30;99.90
6696;DHT22;3385;48.928;10.330;2024-02-21T12:37:37;17.50;99.90
6696;DHT22;3385;48.928;10.330;2024-02-21T12:40:05;16.50;99.90
6696;DHT22;3385;48.928;10.330;2024-02-21T12:42:35;16.40;99.90
6696;DHT22;3385;48.928;10.330;2024-02-21T12:45:02;16.00;99.90
6696;DHT22;3385;48.928;10.330;2024-02-21T12:47:28;15.50;99.90
6696;DHT22;3385;48.928;10.330;2024-02-21T12:49:54;17.00;99.90
6696;DHT22;3385;48.928;10.330;2024-02-21T12:52:20;16.60;99.90
6696;DHT22;3385;48.928;10.330;2024-02-21T12:54:46;16.90;99.90
6696;DHT22;3385;48.928;10.330;2024-02-21T12:57:12;15.80;99.90
6696;DHT22;3385;48.928;10.330;2024-02-21T12:59:38;15.20;99.90
6696;DHT22;3385;48.928;10.330;2024-02-21T13:02:04;15.50;99.90
6696;DHT22;3385;48.928;10.330;2024-02-21T13:04:30;15.10;99.90
6696;DHT22;3385;48.928;10.330;2024-02-21T13:06:55;14.90;99.90
6696;DHT22;3385;48.928;10.330;2024-02-21T13:09:21;14.60;99.90
6696;DHT22;3385;48.928;10.330;2024-02-21T13:11:47;15.30;99.90
6696;DHT22;3385;48.928;10.330;2024-02-21T13:14:13;15.00;99.90
6696;DHT22;3385;48.928;10.330;2024-02-21T13:16:39;15.10;99.90
6696;DHT22;3385;48.928;10.330;2024-02-21T13:19:08;15.40;99.90
6696;DHT22;3385;48.928;10.330;2024-02-21T13:21:36;16.10;99.90
6696;DHT22;3385;48.928;10.330;2024-02-21T13:24:02;15.90;99.90
6696;DHT22;3385;48.928;10.330;2024-02-21T13:26:28;16.10;99.90
6696;DHT22;3385;48.928;10.330;2024-02-21T13:28:54;16.20;99.90
6696;DHT22;3385;48.928;10.330;2024-02-21T13:31:20;17.20;99.90
6696;DHT22;3385;48.928;10.330;2024-02-21T13:33:46;18.40;99.90
6696;DHT22;3385;48.928;10.330;2024-02-21T13:36:12;18.90;99.90
6696;DHT22;3385;48.928;10.330;2024-02-21T13:38:38;18.80;99.90
6696;DHT22;3385;48.928;10.330;2024-02-21T13:41:07;19.00;99.90
6696;DHT22;3385;48.928;10.330;2024-02-21T13:43:33;18.80;99.90
6696;DHT22;3385;48.928;10.330;2024-02-21T13:46:01;18.90;99.80
6696;DHT22;3385;48.928;10.330;2024-02-21T13:48:28;18.50;98.90
6696;DHT22;3385;48.928;10.330;2024-02-21T13:50:54;19.00;98.90
6696;DHT22;3385;48.928;10.330;2024-02-21T13:53:20;19.10;99.20
6696;DHT22;3385;48.928;10.330;2024-02-21T13:55:48;19.00;98.50
6696;DHT22;3385;48.928;10.330;2024-02-21T13:58:14;19.50;98.20
6696;DHT22;3385;48.928;10.330;2024-02-21T14:00:40;20.00;98.70
6696;DHT22;3385;48.928;10.330;2024-02-21T14:03:06;19.20;98.00
6696;DHT22;3385;48.928;10.330;2024-02-21T14:05:32;18.70;97.80
6696;DHT22;3385;48.928;10.330;2024-02-21T14:07:57;17.90;99.00
6696;DHT22;3385;48.928;10.330;2024-02-21T14:10:23;16.70;99.90
6696;DHT22;3385;48.928;10.330;2024-02-21T14:12:49;16.40;99.90
6696;DHT22;3385;48.928;10.330;2024-02-21T14:15:15;15.90;99.90
6696;DHT22;3385;48.928;10.330;2024-02-21T14:17:42;15.00;99.90
6696;DHT22;3385;48.928;10.330;2024-02-21T14:20:08;14.10;99.90
6696;DHT22;3385;48.928;10.330;2024-02-21T14:22:34;13.50;99.90
6696;DHT22;3385;48.928;10.330;2024-02-21T14:25:03;13.20;99.90
6696;DHT22;3385;48.928;10.330;2024-02-21T14:27:31;13.30;99.90
6696;DHT22;3385;48.928;10.330;2024-02-21T14:29:57;12.70;99.90
6696;DHT22;3385;48.928;10.330;2024-02-21T14:32:23;12.60;99.90
6696;DHT22;3385;48.928;10.330;2024-02-21T14:34:48;12.50;99.90
6696;DHT22;3385;48.928;10.330;2024-02-21T14:37:15;12.30;99.90
6696;DHT22;3385;48.928;10.330;2024-02-21T14:39:41;12.00;99.90
6696;DHT22;3385;48.928;10.330;2024-02-21T14:42:07;12.00;99.90
6696;DHT22;3385;48.928;10.330;2024-02-21T14:44:35;11.90;99.90
6696;DHT22;3385;48.928;10.330;2024-02-21T14:47:02;11.90;99.90
6696;DHT22;3385;48.928;10.330;2024-02-21T14:49:29;11.50;99.90
6696;DHT22;3385;48.928;10.330;2024-02-21T14:51:55;11.90;99.90
6696;DHT22;3385;48.928;10.330;2024-02-21T14:54:20;12.10;99.90
6696;DHT22;3385;48.928;10.330;2024-02-21T14:56:46;12.10;99.90
6696;DHT22;3385;48.928;10.330;2024-02-21T15:06:31;11.40;99.90
6696;DHT22;3385;48.928;10.330;2024-02-21T15:11:24;11.40;99.90
6696;DHT22;3385;48.928;10.330;2024-02-21T15:13:49;11.40;99.90
6696;DHT22;3385;48.928;10.330;2024-02-21T15:16:15;11.20;99.90
6696;DHT22;3385;48.928;10.330;2024-02-21T15:18:44;11.40;99.90
6696;DHT22;3385;48.928;10.330;2024-02-21T15:21:10;11.40;99.90
6696;DHT22;3385;48.928;10.330;2024-02-21T15:23:40;11.00;99.90
6696;DHT22;3385;48.928;10.330;2024-02-21T15:26:06;11.20;99.90
6696;DHT22;3385;48.928;10.330;2024-02-21T15:28:32;11.20;99.90
6696;DHT22;3385;48.928;10.330;2024-02-21T15:30:58;11.20;99.90
6696;DHT22;3385;48.928;10.330;2024-02-21T15:33:24;11.10;99.90
6696;DHT22;3385;48.928;10.330;2024-02-21T15:35:50;11.20;99.90
6696;DHT22;3385;48.928;10.330;2024-02-21T15:38:16;11.10;99.90
6696;DHT22;3385;48.928;10.330;2024-02-21T15:40:42;11.00;99.90
6696;DHT22;3385;48.928;10.330;2024-02-21T15:43:07;11.20;99.90
6696;DHT22;3385;48.928;10.330;2024-02-21T15:45:34;11.20;99.90
6696;DHT22;3385;48.928;10.330;2024-02-21T15:48:00;10.70;99.90
6696;DHT22;3385;48.928;10.330;2024-02-21T15:50:25;11.10;99.90
6696;DHT22;3385;48.928;10.330;2024-02-21T15:52:54;11.20;99.90
6696;DHT22;3385;48.928;10.330;2024-02-21T15:55:21;11.40;99.90
6696;DHT22;3385;48.928;10.330;2024-02-21T15:57:47;11.20;99.90
6696;DHT22;3385;48.928;10.330;2024-02-21T16:00:15;11.30;99.90
6696;DHT22;3385;48.928;10.330;2024-02-21T16:02:42;11.40;99.90
6696;DHT22;3385;48.928;10.330;2024-02-21T16:05:08;11.00;99.90
6696;DHT22;3385;48.928;10.330;2024-02-21T16:07:38;10.70;99.90
6696;DHT22;3385;48.928;10.330;2024-02-21T16:10:04;11.00;99.90
6696;DHT22;3385;48.928;10.330;2024-02-21T16:12:31;10.50;99.90
6696;DHT22;3385;48.928;10.330;2024-02-21T16:14:57;10.20;99.90
6696;DHT22;3385;48.928;10.330;2024-02-21T16:17:22;10.40;99.90
6696;DHT22;3385;48.928;10.330;2024-02-21T16:19:48;10.20;99.90
6696;DHT22;3385;48.928;10.330;2024-02-21T16:24:41;9.90;99.90
6696;DHT22;3385;48.928;10.330;2024-02-21T16:27:07;9.70;99.90
6696;DHT22;3385;48.928;10.330;2024-02-21T16:29:39;9.40;99.90
6696;DHT22;3385;48.928;10.330;2024-02-21T16:32:05;9.30;99.90
6696;DHT22;3385;48.928;10.330;2024-02-21T16:34:31;9.10;99.90
6696;DHT22;3385;48.928;10.330;2024-02-21T16:36:58;8.90;99.90
6696;DHT22;3385;48.928;10.330;2024-02-21T16:39:25;9.20;99.90
6696;DHT22;3385;48.928;10.330;2024-02-21T16:41:51;8.90;99.90
6696;DHT22;3385;48.928;10.330;2024-02-21T16:44:19;8.70;99.90
6696;DHT22;3385;48.928;10.330;2024-02-21T16:46:45;8.40;99.90
6696;DHT22;3385;48.928;10.330;2024-02-21T16:56:34;8.30;99.90
6696;DHT22;3385;48.928;10.330;2024-02-21T16:59:02;8.30;99.90
6696;DHT22;3385;48.928;10.330;2024-02-21T17:03:56;8.20;99.90
6696;DHT22;3385;48.928;10.330;2024-02-21T17:06:21;8.10;99.90
6696;DHT22;3385;48.928;10.330;2024-02-21T17:08:47;8.00;99.90
6696;DHT22;3385;48.928;10.330;2024-02-21T17:11:13;8.30;99.90
6696;DHT22;3385;48.928;10.330;2024-02-21T17:16:05;8.30;99.90
6696;DHT22;3385;48.928;10.330;2024-02-21T17:30:41;8.80;99.90
6696;DHT22;3385;48.928;10.330;2024-02-21T17:33:07;8.90;99.90
6696;DHT22;3385;48.928;10.330;2024-02-21T17:35:33;8.90;99.90
6696;DHT22;3385;48.928;10.330;2024-02-21T17:40:27;8.50;99.90
6696;DHT22;3385;48.928;10.330;2024-02-21T17:42:53;8.80;99.90
6696;DHT22;3385;48.928;10.330;2024-02-21T17:45:18;8.70;99.90
6696;DHT22;3385;48.928;10.330;2024-02-21T17:47:44;8.90;99.90
6696;DHT22;3385;48.928;10.330;2024-02-21T17:50:10;9.10;99.90
6696;DHT22;3385;48.928;10.330;2024-02-21T17:52:36;8.90;99.90
6696;DHT22;3385;48.928;10.330;2024-02-21T17:57:31;8.70;99.90
6696;DHT22;3385;48.928;10.330;2024-02-21T17:59:56;8.80;99.90
6696;DHT22;3385;48.928;10.330;2024-02-21T18:02:22;8.60;99.90
6696;DHT22;3385;48.928;10.330;2024-02-21T18:14:34;8.60;99.90
6696;DHT22;3385;48.928;10.330;2024-02-21T18:24:18;8.90;99.90
6696;DHT22;3385;48.928;10.330;2024-02-21T18:31:38;8.60;99.90
6696;DHT22;3385;48.928;10.330;2024-02-21T18:36:30;8.70;99.90
6696;DHT22;3385;48.928;10.330;2024-02-21T18:38:56;8.30;99.90
6696;DHT22;3385;48.928;10.330;2024-02-21T18:43:48;8.70;99.90
6696;DHT22;3385;48.928;10.330;2024-02-21T18:48:41;9.00;99.90
6696;DHT22;3385;48.928;10.330;2024-02-21T18:51:16;8.70;99.90